sensor_id;sensor_type;location;lat;lon;timestamp;pressure;altitude;pressure_sealevel;temperature;humidity
71126;BME280;58785;55.566;38.058;2023-04-26T00:02:02;98959.41;;;11.98;79.51
71126;BME280;58785;55.566;38.058;2023-04-26T00:04:30;98979.66;;;12.07;79.14
71126;BME280;58785;55.566;38.058;2023-04-26T00:06:56;98969.16;;;12.06;79.20
71126;BME280;58785;55.566;38.058;2023-04-26T00:09:21;98957.09;;;11.95;79.68
71126;BME280;58785;55.566;38.058;2023-04-26T00:11:47;98964.22;;;12.03;79.71
71126;BME280;58785;55.566;38.058;2023-04-26T00:14:13;98958.66;;;12.04;79.83
71126;BME280;58785;55.566;38.058;2023-04-26T00:16:39;98951.00;;;12.01;79.88
71126;BME280;58785;55.566;38.058;2023-04-26T00:19:04;98948.19;;;12.03;79.05
71126;BME280;58785;55.566;38.058;2023-04-26T00:21:30;98952.13;;;12.07;79.40
71126;BME280;58785;55.566;38.058;2023-04-26T00:23:56;98954.78;;;12.07;79.48
71126;BME280;58785;55.566;38.058;2023-04-26T00:26:22;98952.94;;;12.07;79.63
71126;BME280;58785;55.566;38.058;2023-04-26T00:28:47;98950.09;;;12.09;79.22
71126;BME280;58785;55.566;38.058;2023-04-26T00:31:16;98940.03;;;12.11;79.71
71126;BME280;58785;55.566;38.058;2023-04-26T00:33:42;98939.41;;;12.09;79.09
71126;BME280;58785;55.566;38.058;2023-04-26T00:36:09;98930.09;;;12.05;80.03
71126;BME280;58785;55.566;38.058;2023-04-26T00:38:36;98943.28;;;12.06;79.60
71126;BME280;58785;55.566;38.058;2023-04-26T00:41:01;98935.25;;;12.06;79.90
71126;BME280;58785;55.566;38.058;2023-04-26T00:43:27;98936.91;;;12.07;79.86
71126;BME280;58785;55.566;38.058;2023-04-26T00:45:53;98922.28;;;12.03;79.81
71126;BME280;58785;55.566;38.058;2023-04-26T00:48:19;98910.28;;;11.99;80.57
71126;BME280;58785;55.566;38.058;2023-04-26T00:50:45;98922.44;;;12.02;80.51
71126;BME280;58785;55.566;38.058;2023-04-26T00:53:15;98915.63;;;11.99;80.52
71126;BME280;58785;55.566;38.058;2023-04-26T00:55:42;98913.44;;;12.03;79.69
71126;BME280;58785;55.566;38.058;2023-04-26T00:58:09;98909.28;;;12.00;80.07
71126;BME280;58785;55.566;38.058;2023-04-26T01:00:34;98908.09;;;12.03;80.52
71126;BME280;58785;55.566;38.058;2023-04-26T01:03:00;98912.34;;;11.97;80.41
71126;BME280;58785;55.566;38.058;2023-04-26T01:05:26;98901.84;;;11.96;80.08
71126;BME280;58785;55.566;38.058;2023-04-26T01:07:52;98899.81;;;11.98;80.41
71126;BME280;58785;55.566;38.058;2023-04-26T01:10:17;98903.50;;;11.97;80.60
71126;BME280;58785;55.566;38.058;2023-04-26T01:12:43;98894.44;;;11.98;80.24
71126;BME280;58785;55.566;38.058;2023-04-26T01:15:10;98904.13;;;11.99;80.34
71126;BME280;58785;55.566;38.058;2023-04-26T01:17:36;98892.63;;;11.98;79.88
71126;BME280;58785;55.566;38.058;2023-04-26T01:20:03;98884.16;;;11.95;80.49
71126;BME280;58785;55.566;38.058;2023-04-26T01:22:33;98878.34;;;11.91;80.89
71126;BME280;58785;55.566;38.058;2023-04-26T01:25:00;98877.31;;;11.92;80.67
71126;BME280;58785;55.566;38.058;2023-04-26T01:27:29;98882.94;;;11.97;80.61
71126;BME280;58785;55.566;38.058;2023-04-26T01:29:54;98870.78;;;11.95;80.01
71126;BME280;58785;55.566;38.058;2023-04-26T01:32:20;98872.06;;;11.99;80.19
71126;BME280;58785;55.566;38.058;2023-04-26T01:34:46;98869.41;;;11.99;80.24
71126;BME280;58785;55.566;38.058;2023-04-26T01:37:11;98871.03;;;12.00;80.36
71126;BME280;58785;55.566;38.058;2023-04-26T01:39:37;98861.75;;;11.96;80.77
71126;BME280;58785;55.566;38.058;2023-04-26T01:42:03;98862.22;;;11.99;80.66
71126;BME280;58785;55.566;38.058;2023-04-26T01:44:29;98864.25;;;11.97;80.79
71126;BME280;58785;55.566;38.058;2023-04-26T01:46:55;98848.94;;;11.91;80.88
71126;BME280;58785;55.566;38.058;2023-04-26T01:49:21;98839.47;;;11.89;80.53
71126;BME280;58785;55.566;38.058;2023-04-26T01:51:47;98851.47;;;11.93;80.56
71126;BME280;58785;55.566;38.058;2023-04-26T01:54:12;98849.63;;;11.93;81.39
71126;BME280;58785;55.566;38.058;2023-04-26T01:56:38;98836.59;;;11.90;80.75
71126;BME280;58785;55.566;38.058;2023-04-26T01:59:03;98846.94;;;11.93;80.77
71126;BME280;58785;55.566;38.058;2023-04-26T02:01:29;98830.63;;;11.88;81.30
71126;BME280;58785;55.566;38.058;2023-04-26T02:03:55;98833.75;;;11.92;81.41
71126;BME280;58785;55.566;38.058;2023-04-26T02:06:21;98835.03;;;11.96;81.11
71126;BME280;58785;55.566;38.058;2023-04-26T02:08:47;98826.22;;;11.95;81.26
71126;BME280;58785;55.566;38.058;2023-04-26T02:11:13;98829.31;;;11.99;81.36
71126;BME280;58785;55.566;38.058;2023-04-26T02:13:39;98816.97;;;11.98;80.99
71126;BME280;58785;55.566;38.058;2023-04-26T02:16:06;98820.47;;;11.98;81.41
71126;BME280;58785;55.566;38.058;2023-04-26T02:18:32;98822.75;;;12.01;81.24
71126;BME280;58785;55.566;38.058;2023-04-26T02:20:58;98814.19;;;12.06;80.79
71126;BME280;58785;55.566;38.058;2023-04-26T02:23:24;98808.38;;;12.02;80.96
71126;BME280;58785;55.566;38.058;2023-04-26T02:25:50;98810.91;;;12.04;81.36
71126;BME280;58785;55.566;38.058;2023-04-26T02:28:16;98812.16;;;12.08;81.08
71126;BME280;58785;55.566;38.058;2023-04-26T02:30:42;98800.38;;;12.02;81.11
71126;BME280;58785;55.566;38.058;2023-04-26T02:33:08;98793.56;;;12.00;81.35
71126;BME280;58785;55.566;38.058;2023-04-26T02:35:34;98801.66;;;12.06;81.27
71126;BME280;58785;55.566;38.058;2023-04-26T02:38:02;98793.75;;;11.98;80.92
71126;BME280;58785;55.566;38.058;2023-04-26T02:40:28;98806.63;;;12.09;80.75
71126;BME280;58785;55.566;38.058;2023-04-26T02:42:55;98803.75;;;12.11;80.83
71126;BME280;58785;55.566;38.058;2023-04-26T02:45:21;98799.06;;;12.13;80.81
71126;BME280;58785;55.566;38.058;2023-04-26T02:47:46;98794.28;;;12.08;81.05
71126;BME280;58785;55.566;38.058;2023-04-26T02:50:12;98796.13;;;12.08;81.49
71126;BME280;58785;55.566;38.058;2023-04-26T02:52:38;98798.59;;;12.09;81.29
71126;BME280;58785;55.566;38.058;2023-04-26T02:55:04;98782.53;;;12.03;80.89
71126;BME280;58785;55.566;38.058;2023-04-26T02:57:31;98786.91;;;12.11;81.58
71126;BME280;58785;55.566;38.058;2023-04-26T02:59:58;98792.00;;;12.05;81.50
71126;BME280;58785;55.566;38.058;2023-04-26T03:02:24;98797.16;;;12.07;81.43
71126;BME280;58785;55.566;38.058;2023-04-26T03:04:49;98789.69;;;12.02;81.82
71126;BME280;58785;55.566;38.058;2023-04-26T03:07:15;98787.88;;;12.03;81.80
71126;BME280;58785;55.566;38.058;2023-04-26T03:09:41;98788.41;;;11.98;81.71
71126;BME280;58785;55.566;38.058;2023-04-26T03:12:07;98780.22;;;12.00;81.67
71126;BME280;58785;55.566;38.058;2023-04-26T03:14:34;98774.50;;;12.03;82.00
71126;BME280;58785;55.566;38.058;2023-04-26T03:17:00;98780.09;;;12.08;81.63
71126;BME280;58785;55.566;38.058;2023-04-26T03:19:27;98773.50;;;12.04;81.64
71126;BME280;58785;55.566;38.058;2023-04-26T03:21:53;98764.88;;;12.08;81.70
71126;BME280;58785;55.566;38.058;2023-04-26T03:24:19;98778.13;;;12.17;81.67
71126;BME280;58785;55.566;38.058;2023-04-26T03:26:44;98767.44;;;12.17;81.27
71126;BME280;58785;55.566;38.058;2023-04-26T03:29:11;98772.19;;;12.21;81.27
71126;BME280;58785;55.566;38.058;2023-04-26T03:31:37;98772.88;;;12.23;81.40
71126;BME280;58785;55.566;38.058;2023-04-26T03:34:04;98771.78;;;12.18;81.32
71126;BME280;58785;55.566;38.058;2023-04-26T03:36:29;98769.72;;;12.20;81.67
71126;BME280;58785;55.566;38.058;2023-04-26T03:38:55;98767.31;;;12.25;81.18
71126;BME280;58785;55.566;38.058;2023-04-26T03:41:22;98765.66;;;12.24;81.70
71126;BME280;58785;55.566;38.058;2023-04-26T03:43:48;98768.69;;;12.21;81.47
71126;BME280;58785;55.566;38.058;2023-04-26T03:46:14;98762.53;;;12.20;81.54
71126;BME280;58785;55.566;38.058;2023-04-26T03:48:40;98758.84;;;12.21;82.07
71126;BME280;58785;55.566;38.058;2023-04-26T03:51:06;98758.41;;;12.18;81.50
71126;BME280;58785;55.566;38.058;2023-04-26T03:53:32;98766.41;;;12.18;81.31
71126;BME280;58785;55.566;38.058;2023-04-26T03:55:58;98752.88;;;12.19;82.05
71126;BME280;58785;55.566;38.058;2023-04-26T03:58:24;98759.66;;;12.22;81.67
71126;BME280;58785;55.566;38.058;2023-04-26T04:00:51;98755.63;;;12.26;81.79
71126;BME280;58785;55.566;38.058;2023-04-26T04:03:16;98754.41;;;12.28;81.27
71126;BME280;58785;55.566;38.058;2023-04-26T04:05:43;98753.56;;;12.28;81.38
71126;BME280;58785;55.566;38.058;2023-04-26T04:08:09;98739.25;;;12.14;81.88
71126;BME280;58785;55.566;38.058;2023-04-26T04:10:35;98743.00;;;12.20;81.93
71126;BME280;58785;55.566;38.058;2023-04-26T04:13:02;98743.19;;;12.18;81.75
71126;BME280;58785;55.566;38.058;2023-04-26T04:15:28;98740.34;;;12.20;81.95
71126;BME280;58785;55.566;38.058;2023-04-26T04:17:54;98736.19;;;12.17;81.92
71126;BME280;58785;55.566;38.058;2023-04-26T04:20:20;98746.97;;;12.24;81.99
71126;BME280;58785;55.566;38.058;2023-04-26T04:22:46;98730.94;;;12.24;81.80
71126;BME280;58785;55.566;38.058;2023-04-26T04:25:12;98740.41;;;12.26;81.74
71126;BME280;58785;55.566;38.058;2023-04-26T04:27:39;98749.03;;;12.28;81.53
71126;BME280;58785;55.566;38.058;2023-04-26T04:30:11;98743.50;;;12.30;81.57
71126;BME280;58785;55.566;38.058;2023-04-26T04:32:37;98738.16;;;12.30;81.77
71126;BME280;58785;55.566;38.058;2023-04-26T04:35:04;98742.88;;;12.28;82.13
71126;BME280;58785;55.566;38.058;2023-04-26T04:37:31;98742.44;;;12.24;81.87
71126;BME280;58785;55.566;38.058;2023-04-26T04:39:58;98735.88;;;12.27;81.75
71126;BME280;58785;55.566;38.058;2023-04-26T04:42:24;98735.69;;;12.28;81.90
71126;BME280;58785;55.566;38.058;2023-04-26T04:44:52;98730.72;;;12.25;81.85
71126;BME280;58785;55.566;38.058;2023-04-26T04:47:18;98733.09;;;12.35;81.74
71126;BME280;58785;55.566;38.058;2023-04-26T04:49:43;98735.13;;;12.33;82.09
71126;BME280;58785;55.566;38.058;2023-04-26T04:52:09;98742.13;;;12.34;82.14
71126;BME280;58785;55.566;38.058;2023-04-26T04:54:35;98733.63;;;12.30;82.36
71126;BME280;58785;55.566;38.058;2023-04-26T04:57:01;98737.59;;;12.34;82.13
71126;BME280;58785;55.566;38.058;2023-04-26T04:59:28;98739.81;;;12.31;82.57
71126;BME280;58785;55.566;38.058;2023-04-26T05:01:54;98739.63;;;12.32;82.27
71126;BME280;58785;55.566;38.058;2023-04-26T05:04:20;98734.25;;;12.32;82.48
71126;BME280;58785;55.566;38.058;2023-04-26T05:06:46;98720.06;;;12.32;82.11
71126;BME280;58785;55.566;38.058;2023-04-26T05:09:11;98739.25;;;12.35;81.83
71126;BME280;58785;55.566;38.058;2023-04-26T05:11:37;98743.44;;;12.45;82.32
71126;BME280;58785;55.566;38.058;2023-04-26T05:14:03;98741.00;;;12.50;81.96
71126;BME280;58785;55.566;38.058;2023-04-26T05:16:28;98740.63;;;12.53;82.37
71126;BME280;58785;55.566;38.058;2023-04-26T05:18:54;98729.94;;;12.53;82.03
71126;BME280;58785;55.566;38.058;2023-04-26T05:21:20;98735.13;;;12.61;81.80
71126;BME280;58785;55.566;38.058;2023-04-26T05:23:46;98728.59;;;12.63;82.07
71126;BME280;58785;55.566;38.058;2023-04-26T05:26:15;98733.94;;;12.63;81.90
71126;BME280;58785;55.566;38.058;2023-04-26T05:28:41;98726.47;;;12.59;82.45
71126;BME280;58785;55.566;38.058;2023-04-26T05:31:10;98739.09;;;12.65;81.93
71126;BME280;58785;55.566;38.058;2023-04-26T05:33:36;98738.88;;;12.66;82.34
71126;BME280;58785;55.566;38.058;2023-04-26T05:36:02;98739.94;;;12.72;82.17
71126;BME280;58785;55.566;38.058;2023-04-26T05:38:28;98733.97;;;12.70;82.20
71126;BME280;58785;55.566;38.058;2023-04-26T05:40:54;98739.75;;;12.74;82.23
71126;BME280;58785;55.566;38.058;2023-04-26T05:43:20;98738.34;;;12.78;82.15
71126;BME280;58785;55.566;38.058;2023-04-26T05:45:55;98740.81;;;12.79;82.04
71126;BME280;58785;55.566;38.058;2023-04-26T05:48:23;98734.25;;;12.82;82.09
71126;BME280;58785;55.566;38.058;2023-04-26T05:50:50;98735.72;;;12.84;82.24
71126;BME280;58785;55.566;38.058;2023-04-26T05:53:17;98737.59;;;12.90;81.92
71126;BME280;58785;55.566;38.058;2023-04-26T05:55:46;98735.53;;;12.86;82.17
71126;BME280;58785;55.566;38.058;2023-04-26T05:58:12;98733.25;;;12.89;82.00
71126;BME280;58785;55.566;38.058;2023-04-26T06:00:38;98740.31;;;12.97;81.88
71126;BME280;58785;55.566;38.058;2023-04-26T06:03:05;98731.88;;;12.93;81.63
71126;BME280;58785;55.566;38.058;2023-04-26T06:05:31;98736.81;;;12.97;81.67
71126;BME280;58785;55.566;38.058;2023-04-26T06:07:57;98736.63;;;12.98;81.53
71126;BME280;58785;55.566;38.058;2023-04-26T06:10:23;98749.44;;;13.09;81.25
71126;BME280;58785;55.566;38.058;2023-04-26T06:12:49;98740.16;;;13.05;81.68
71126;BME280;58785;55.566;38.058;2023-04-26T06:15:15;98750.41;;;13.02;81.91
71126;BME280;58785;55.566;38.058;2023-04-26T06:17:41;98757.63;;;13.01;81.87
71126;BME280;58785;55.566;38.058;2023-04-26T06:20:07;98755.34;;;12.98;82.14
71126;BME280;58785;55.566;38.058;2023-04-26T06:22:36;98746.69;;;12.96;81.81
71126;BME280;58785;55.566;38.058;2023-04-26T06:25:04;98750.88;;;13.05;81.65
71126;BME280;58785;55.566;38.058;2023-04-26T06:27:30;98755.63;;;13.10;81.83
71126;BME280;58785;55.566;38.058;2023-04-26T06:29:56;98750.53;;;13.15;81.51
71126;BME280;58785;55.566;38.058;2023-04-26T06:32:22;98755.25;;;13.13;81.59
71126;BME280;58785;55.566;38.058;2023-04-26T06:34:48;98748.03;;;13.13;81.73
71126;BME280;58785;55.566;38.058;2023-04-26T06:37:13;98747.31;;;13.26;81.41
71126;BME280;58785;55.566;38.058;2023-04-26T06:39:39;98756.38;;;13.32;81.15
71126;BME280;58785;55.566;38.058;2023-04-26T06:42:04;98749.19;;;13.32;81.17
71126;BME280;58785;55.566;38.058;2023-04-26T06:44:31;98758.03;;;13.33;80.85
71126;BME280;58785;55.566;38.058;2023-04-26T06:46:57;98758.47;;;13.36;81.26
71126;BME280;58785;55.566;38.058;2023-04-26T06:49:23;98757.28;;;13.45;80.59
71126;BME280;58785;55.566;38.058;2023-04-26T06:51:48;98768.63;;;13.47;81.06
71126;BME280;58785;55.566;38.058;2023-04-26T06:54:14;98754.00;;;13.43;80.89
71126;BME280;58785;55.566;38.058;2023-04-26T06:56:40;98759.97;;;13.52;80.82
71126;BME280;58785;55.566;38.058;2023-04-26T06:59:06;98758.56;;;13.56;80.58
71126;BME280;58785;55.566;38.058;2023-04-26T07:01:33;98758.38;;;13.58;80.53
71126;BME280;58785;55.566;38.058;2023-04-26T07:04:03;98767.28;;;13.65;80.46
71126;BME280;58785;55.566;38.058;2023-04-26T07:06:31;98762.50;;;13.60;80.45
71126;BME280;58785;55.566;38.058;2023-04-26T07:08:58;98767.22;;;13.58;80.54
71126;BME280;58785;55.566;38.058;2023-04-26T07:11:24;98779.81;;;13.58;80.59
71126;BME280;58785;55.566;38.058;2023-04-26T07:13:50;98780.63;;;13.58;80.27
71126;BME280;58785;55.566;38.058;2023-04-26T07:16:16;98787.00;;;13.57;80.15
71126;BME280;58785;55.566;38.058;2023-04-26T07:18:42;98778.34;;;13.62;80.12
71126;BME280;58785;55.566;38.058;2023-04-26T07:21:07;98778.81;;;13.65;80.14
71126;BME280;58785;55.566;38.058;2023-04-26T07:23:34;98769.75;;;13.66;80.16
71126;BME280;58785;55.566;38.058;2023-04-26T07:25:59;98765.63;;;13.70;79.82
71126;BME280;58785;55.566;38.058;2023-04-26T07:28:31;98774.94;;;13.81;79.29
71126;BME280;58785;55.566;38.058;2023-04-26T07:30:59;98779.31;;;14.02;79.01
71126;BME280;58785;55.566;38.058;2023-04-26T07:33:26;98779.34;;;14.08;78.36
71126;BME280;58785;55.566;38.058;2023-04-26T07:35:58;98780.41;;;14.21;78.07
71126;BME280;58785;55.566;38.058;2023-04-26T07:42:06;98783.91;;;14.21;77.99
71126;BME280;58785;55.566;38.058;2023-04-26T07:44:31;98787.38;;;14.08;78.16
71126;BME280;58785;55.566;38.058;2023-04-26T07:46:57;98793.19;;;14.19;77.88
71126;BME280;58785;55.566;38.058;2023-04-26T07:49:22;98793.81;;;14.14;77.98
71126;BME280;58785;55.566;38.058;2023-04-26T07:51:48;98787.63;;;14.14;77.83
71126;BME280;58785;55.566;38.058;2023-04-26T07:54:16;98791.34;;;14.26;77.70
71126;BME280;58785;55.566;38.058;2023-04-26T07:56:42;98794.88;;;14.33;77.41
71126;BME280;58785;55.566;38.058;2023-04-26T07:59:07;98784.97;;;14.33;77.28
71126;BME280;58785;55.566;38.058;2023-04-26T08:01:33;98798.59;;;14.38;77.06
71126;BME280;58785;55.566;38.058;2023-04-26T08:03:59;98794.06;;;14.39;77.68
71126;BME280;58785;55.566;38.058;2023-04-26T08:06:24;98804.19;;;14.50;77.26
71126;BME280;58785;55.566;38.058;2023-04-26T08:08:51;98807.50;;;14.52;77.15
71126;BME280;58785;55.566;38.058;2023-04-26T08:11:18;98802.97;;;14.53;77.08
71126;BME280;58785;55.566;38.058;2023-04-26T08:13:43;98796.38;;;14.49;77.18
71126;BME280;58785;55.566;38.058;2023-04-26T08:16:09;98804.63;;;14.47;77.42
71126;BME280;58785;55.566;38.058;2023-04-26T08:18:35;98807.25;;;14.41;77.28
71126;BME280;58785;55.566;38.058;2023-04-26T08:21:01;98808.06;;;14.41;77.15
71126;BME280;58785;55.566;38.058;2023-04-26T08:23:27;98810.31;;;14.31;77.04
71126;BME280;58785;55.566;38.058;2023-04-26T08:25:56;98819.19;;;14.31;76.90
71126;BME280;58785;55.566;38.058;2023-04-26T08:28:21;98806.22;;;14.35;76.49
71126;BME280;58785;55.566;38.058;2023-04-26T08:30:47;98817.59;;;14.44;76.07
71126;BME280;58785;55.566;38.058;2023-04-26T08:33:13;98805.00;;;14.44;75.97
71126;BME280;58785;55.566;38.058;2023-04-26T08:35:38;98813.50;;;14.54;75.94
71126;BME280;58785;55.566;38.058;2023-04-26T08:38:04;98817.66;;;14.63;75.37
71126;BME280;58785;55.566;38.058;2023-04-26T08:40:29;98817.63;;;14.70;75.43
71126;BME280;58785;55.566;38.058;2023-04-26T08:42:55;98817.41;;;14.72;74.98
71126;BME280;58785;55.566;38.058;2023-04-26T08:45:21;98818.69;;;14.76;75.07
71126;BME280;58785;55.566;38.058;2023-04-26T08:47:58;98811.88;;;14.66;75.07
71126;BME280;58785;55.566;38.058;2023-04-26T08:50:28;98812.69;;;14.74;74.47
71126;BME280;58785;55.566;38.058;2023-04-26T08:52:55;98826.53;;;14.84;74.59
71126;BME280;58785;55.566;38.058;2023-04-26T08:55:21;98831.50;;;14.93;74.22
71126;BME280;58785;55.566;38.058;2023-04-26T08:57:49;98818.47;;;14.97;73.91
71126;BME280;58785;55.566;38.058;2023-04-26T09:00:16;98822.16;;;15.03;73.83
71126;BME280;58785;55.566;38.058;2023-04-26T09:02:47;98822.16;;;15.09;73.78
71126;BME280;58785;55.566;38.058;2023-04-26T09:05:13;98828.75;;;15.27;72.95
71126;BME280;58785;55.566;38.058;2023-04-26T09:07:46;98829.97;;;15.44;73.06
71126;BME280;58785;55.566;38.058;2023-04-26T09:10:13;98829.56;;;15.47;72.40
71126;BME280;58785;55.566;38.058;2023-04-26T09:12:42;98836.75;;;15.53;73.13
71126;BME280;58785;55.566;38.058;2023-04-26T09:15:08;98839.66;;;15.51;72.80
71126;BME280;58785;55.566;38.058;2023-04-26T09:17:42;98842.75;;;15.48;73.01
71126;BME280;58785;55.566;38.058;2023-04-26T09:20:21;98849.41;;;15.39;72.64
71126;BME280;58785;55.566;38.058;2023-04-26T09:22:49;98853.53;;;15.22;73.08
71126;BME280;58785;55.566;38.058;2023-04-26T09:25:26;98854.59;;;15.14;72.55
71126;BME280;58785;55.566;38.058;2023-04-26T09:27:52;98848.81;;;15.17;72.76
71126;BME280;58785;55.566;38.058;2023-04-26T09:30:18;98847.78;;;15.25;72.93
71126;BME280;58785;55.566;38.058;2023-04-26T09:32:52;98857.44;;;15.39;72.72
71126;BME280;58785;55.566;38.058;2023-04-26T09:38:06;98863.03;;;15.44;71.95
71126;BME280;58785;55.566;38.058;2023-04-26T09:43:25;98869.63;;;15.42;72.31
71126;BME280;58785;55.566;38.058;2023-04-26T09:45:56;98868.81;;;15.41;72.01
71126;BME280;58785;55.566;38.058;2023-04-26T09:48:27;98865.91;;;15.43;72.25
71126;BME280;58785;55.566;38.058;2023-04-26T09:50:57;98857.44;;;15.39;72.01
71126;BME280;58785;55.566;38.058;2023-04-26T09:53:40;98859.31;;;15.45;71.97
71126;BME280;58785;55.566;38.058;2023-04-26T09:56:10;98873.16;;;15.49;71.55
71126;BME280;58785;55.566;38.058;2023-04-26T10:01:13;98860.09;;;15.52;71.26
71126;BME280;58785;55.566;38.058;2023-04-26T10:03:39;98881.00;;;15.57;70.80
71126;BME280;58785;55.566;38.058;2023-04-26T10:06:06;98887.78;;;15.60;71.03
71126;BME280;58785;55.566;38.058;2023-04-26T10:08:32;98878.50;;;15.62;71.27
71126;BME280;58785;55.566;38.058;2023-04-26T10:10:59;98884.28;;;15.52;71.05
71126;BME280;58785;55.566;38.058;2023-04-26T10:13:26;98885.75;;;15.48;70.86
71126;BME280;58785;55.566;38.058;2023-04-26T10:15:53;98897.97;;;15.31;71.54
71126;BME280;58785;55.566;38.058;2023-04-26T10:18:20;98889.28;;;15.22;72.12
71126;BME280;58785;55.566;38.058;2023-04-26T10:20:50;98903.75;;;15.15;72.07
71126;BME280;58785;55.566;38.058;2023-04-26T10:23:19;98912.63;;;15.02;72.24
71126;BME280;58785;55.566;38.058;2023-04-26T10:25:46;98917.78;;;14.90;72.64
71126;BME280;58785;55.566;38.058;2023-04-26T10:28:12;98916.94;;;14.90;72.67
71126;BME280;58785;55.566;38.058;2023-04-26T10:30:57;98919.03;;;14.94;73.08
71126;BME280;58785;55.566;38.058;2023-04-26T10:33:24;98914.47;;;15.02;73.17
71126;BME280;58785;55.566;38.058;2023-04-26T10:36:12;98916.34;;;15.21;73.12
71126;BME280;58785;55.566;38.058;2023-04-26T10:39:16;98919.03;;;15.41;72.27
71126;BME280;58785;55.566;38.058;2023-04-26T10:41:37;98919.84;;;15.74;71.68
71126;BME280;58785;55.566;38.058;2023-04-26T10:47:00;98924.91;;;16.16;70.93
71126;BME280;58785;55.566;38.058;2023-04-26T10:49:26;98923.81;;;16.30;70.65
71126;BME280;58785;55.566;38.058;2023-04-26T10:54:48;98930.13;;;16.55;68.93
71126;BME280;58785;55.566;38.058;2023-04-26T10:57:15;98945.81;;;16.58;68.84
71126;BME280;58785;55.566;38.058;2023-04-26T11:08:15;98944.97;;;16.64;68.53
71126;BME280;58785;55.566;38.058;2023-04-26T11:10:44;98947.22;;;16.74;68.71
71126;BME280;58785;55.566;38.058;2023-04-26T11:13:10;98945.16;;;16.76;68.67
71126;BME280;58785;55.566;38.058;2023-04-26T11:15:36;98947.63;;;16.78;68.87
71126;BME280;58785;55.566;38.058;2023-04-26T11:18:05;98957.44;;;16.97;68.18
71126;BME280;58785;55.566;38.058;2023-04-26T11:20:31;98959.00;;;17.11;67.53
71126;BME280;58785;55.566;38.058;2023-04-26T11:22:58;98952.41;;;17.07;67.13
71126;BME280;58785;55.566;38.058;2023-04-26T11:25:25;98956.19;;;17.00;67.67
71126;BME280;58785;55.566;38.058;2023-04-26T11:28:04;98960.53;;;17.01;67.60
71126;BME280;58785;55.566;38.058;2023-04-26T11:30:33;98971.28;;;17.01;67.57
71126;BME280;58785;55.566;38.058;2023-04-26T11:32:59;98977.09;;;17.04;67.45
71126;BME280;58785;55.566;38.058;2023-04-26T11:35:26;98974.78;;;17.08;66.98
71126;BME280;58785;55.566;38.058;2023-04-26T11:37:57;98984.16;;;16.99;66.89
71126;BME280;58785;55.566;38.058;2023-04-26T11:40:26;98987.53;;;16.87;67.06
71126;BME280;58785;55.566;38.058;2023-04-26T11:42:52;98979.94;;;16.71;67.21
71126;BME280;58785;55.566;38.058;2023-04-26T11:45:18;98986.59;;;16.69;67.50
71126;BME280;58785;55.566;38.058;2023-04-26T11:47:44;98987.00;;;16.65;67.63
71126;BME280;58785;55.566;38.058;2023-04-26T11:50:11;98983.69;;;16.70;67.14
71126;BME280;58785;55.566;38.058;2023-04-26T11:52:37;98985.34;;;16.64;66.56
71126;BME280;58785;55.566;38.058;2023-04-26T11:55:04;98986.22;;;16.52;67.10
71126;BME280;58785;55.566;38.058;2023-04-26T11:57:31;98994.72;;;16.55;66.98
71126;BME280;58785;55.566;38.058;2023-04-26T12:00:11;98995.69;;;16.61;67.08
71126;BME280;58785;55.566;38.058;2023-04-26T12:02:43;98993.84;;;16.61;66.95
71126;BME280;58785;55.566;38.058;2023-04-26T12:05:20;99000.88;;;16.69;67.05
71126;BME280;58785;55.566;38.058;2023-04-26T12:07:49;99000.63;;;16.77;66.97
71126;BME280;58785;55.566;38.058;2023-04-26T12:10:17;99004.53;;;16.81;66.52
71126;BME280;58785;55.566;38.058;2023-04-26T12:12:50;99009.53;;;16.84;66.40
71126;BME280;58785;55.566;38.058;2023-04-26T12:15:22;99004.53;;;16.88;66.52
71126;BME280;58785;55.566;38.058;2023-04-26T12:18:15;99002.44;;;16.90;66.61
71126;BME280;58785;55.566;38.058;2023-04-26T12:20:41;99002.63;;;16.95;66.55
71126;BME280;58785;55.566;38.058;2023-04-26T12:23:11;98993.66;;;17.01;66.61
71126;BME280;58785;55.566;38.058;2023-04-26T12:25:38;99002.50;;;17.15;65.77
71126;BME280;58785;55.566;38.058;2023-04-26T12:28:07;99001.34;;;17.04;65.06
71126;BME280;58785;55.566;38.058;2023-04-26T12:30:37;99002.47;;;16.83;65.07
71126;BME280;58785;55.566;38.058;2023-04-26T12:33:03;99013.50;;;16.69;65.14
71126;BME280;58785;55.566;38.058;2023-04-26T12:35:30;99014.38;;;16.49;65.32
71126;BME280;58785;55.566;38.058;2023-04-26T12:37:56;99012.97;;;16.40;65.69
71126;BME280;58785;55.566;38.058;2023-04-26T12:40:28;99012.34;;;16.38;65.17
71126;BME280;58785;55.566;38.058;2023-04-26T12:42:54;99009.44;;;16.46;65.28
71126;BME280;58785;55.566;38.058;2023-04-26T12:45:22;99015.88;;;16.45;64.85
71126;BME280;58785;55.566;38.058;2023-04-26T12:47:48;99024.75;;;16.46;64.92
71126;BME280;58785;55.566;38.058;2023-04-26T12:50:15;99032.03;;;16.32;64.79
71126;BME280;58785;55.566;38.058;2023-04-26T12:52:42;99035.38;;;16.21;64.83
71126;BME280;58785;55.566;38.058;2023-04-26T12:55:12;99026.91;;;16.10;65.43
71126;BME280;58785;55.566;38.058;2023-04-26T12:57:39;99018.66;;;15.99;65.64
71126;BME280;58785;55.566;38.058;2023-04-26T13:00:08;99019.25;;;16.01;65.27
71126;BME280;58785;55.566;38.058;2023-04-26T13:02:35;99021.56;;;16.04;64.72
71126;BME280;58785;55.566;38.058;2023-04-26T13:05:01;99030.19;;;16.13;64.59
71126;BME280;58785;55.566;38.058;2023-04-26T13:07:33;99027.09;;;16.22;64.18
71126;BME280;58785;55.566;38.058;2023-04-26T13:09:59;99026.41;;;16.40;63.29
71126;BME280;58785;55.566;38.058;2023-04-26T13:12:26;99021.41;;;16.57;62.37
71126;BME280;58785;55.566;38.058;2023-04-26T13:14:53;99036.91;;;16.61;61.31
71126;BME280;58785;55.566;38.058;2023-04-26T13:17:19;99032.53;;;16.67;61.73